sensor_id;sensor_type;location;lat;lon;timestamp;temperature;humidity
11772;DHT22;12556;55.748;13.194;2023-08-30T00:01:38;14.70;99.90
11772;DHT22;12556;55.748;13.194;2023-08-30T00:04:05;14.70;99.90
11772;DHT22;12556;55.748;13.194;2023-08-30T00:06:32;14.70;99.90
11772;DHT22;12556;55.748;13.194;2023-08-30T00:08:59;14.70;99.90
11772;DHT22;12556;55.748;13.194;2023-08-30T00:11:26;14.70;99.90
11772;DHT22;12556;55.748;13.194;2023-08-30T00:14:02;14.70;99.90
11772;DHT22;12556;55.748;13.194;2023-08-30T00:16:31;14.70;99.90
11772;DHT22;12556;55.748;13.194;2023-08-30T00:18:59;14.70;99.90
11772;DHT22;12556;55.748;13.194;2023-08-30T00:21:26;14.70;99.90
11772;DHT22;12556;55.748;13.194;2023-08-30T00:23:53;14.70;99.90
11772;DHT22;12556;55.748;13.194;2023-08-30T00:26:20;14.70;99.90
11772;DHT22;12556;55.748;13.194;2023-08-30T00:28:47;14.70;99.90
11772;DHT22;12556;55.748;13.194;2023-08-30T00:31:14;14.70;99.90
11772;DHT22;12556;55.748;13.194;2023-08-30T00:33:41;14.70;99.90
11772;DHT22;12556;55.748;13.194;2023-08-30T00:36:09;14.60;99.90
11772;DHT22;12556;55.748;13.194;2023-08-30T00:38:36;14.70;99.90
11772;DHT22;12556;55.748;13.194;2023-08-30T00:41:03;14.60;99.90
11772;DHT22;12556;55.748;13.194;2023-08-30T00:43:29;14.70;99.90
11772;DHT22;12556;55.748;13.194;2023-08-30T00:45:57;14.70;99.90
11772;DHT22;12556;55.748;13.194;2023-08-30T00:48:24;14.60;99.90
11772;DHT22;12556;55.748;13.194;2023-08-30T00:50:51;14.60;99.90
11772;DHT22;12556;55.748;13.194;2023-08-30T00:53:19;14.60;99.90
11772;DHT22;12556;55.748;13.194;2023-08-30T00:55:46;14.60;99.90
11772;DHT22;12556;55.748;13.194;2023-08-30T00:58:13;14.60;99.90
11772;DHT22;12556;55.748;13.194;2023-08-30T01:00:40;14.60;99.90
11772;DHT22;12556;55.748;13.194;2023-08-30T01:03:07;14.60;99.90
11772;DHT22;12556;55.748;13.194;2023-08-30T01:05:34;14.60;99.90
11772;DHT22;12556;55.748;13.194;2023-08-30T01:08:02;14.60;99.90
11772;DHT22;12556;55.748;13.194;2023-08-30T01:10:38;14.60;99.90
11772;DHT22;12556;55.748;13.194;2023-08-30T01:13:09;14.60;99.90
11772;DHT22;12556;55.748;13.194;2023-08-30T01:15:38;14.60;99.90
11772;DHT22;12556;55.748;13.194;2023-08-30T01:18:07;14.60;99.90
11772;DHT22;12556;55.748;13.194;2023-08-30T01:20:38;14.60;99.90
11772;DHT22;12556;55.748;13.194;2023-08-30T01:23:07;14.60;99.90
11772;DHT22;12556;55.748;13.194;2023-08-30T01:25:48;14.60;99.90
11772;DHT22;12556;55.748;13.194;2023-08-30T01:28:22;14.60;99.90
11772;DHT22;12556;55.748;13.194;2023-08-30T01:30:49;14.60;99.90
11772;DHT22;12556;55.748;13.194;2023-08-30T01:33:20;14.60;99.90
11772;DHT22;12556;55.748;13.194;2023-08-30T01:35:48;14.60;99.90
11772;DHT22;12556;55.748;13.194;2023-08-30T01:38:16;14.60;99.90
11772;DHT22;12556;55.748;13.194;2023-08-30T01:40:44;14.60;99.90
11772;DHT22;12556;55.748;13.194;2023-08-30T01:43:12;14.60;99.90
11772;DHT22;12556;55.748;13.194;2023-08-30T01:45:42;14.60;99.90
11772;DHT22;12556;55.748;13.194;2023-08-30T01:48:12;14.60;99.90
11772;DHT22;12556;55.748;13.194;2023-08-30T01:50:40;14.60;99.90
11772;DHT22;12556;55.748;13.194;2023-08-30T01:53:08;14.60;99.90
11772;DHT22;12556;55.748;13.194;2023-08-30T01:55:36;14.60;99.90
11772;DHT22;12556;55.748;13.194;2023-08-30T01:58:04;14.60;99.90
11772;DHT22;12556;55.748;13.194;2023-08-30T02:00:31;14.60;99.90
11772;DHT22;12556;55.748;13.194;2023-08-30T02:03:02;14.60;99.90
11772;DHT22;12556;55.748;13.194;2023-08-30T02:05:34;14.60;99.90
11772;DHT22;12556;55.748;13.194;2023-08-30T02:08:05;14.60;99.90
11772;DHT22;12556;55.748;13.194;2023-08-30T02:10:37;14.50;99.90
11772;DHT22;12556;55.748;13.194;2023-08-30T02:13:05;14.60;99.90
11772;DHT22;12556;55.748;13.194;2023-08-30T02:15:33;14.60;99.90
11772;DHT22;12556;55.748;13.194;2023-08-30T02:18:03;14.60;99.90
11772;DHT22;12556;55.748;13.194;2023-08-30T02:20:31;14.50;99.90
11772;DHT22;12556;55.748;13.194;2023-08-30T02:22:58;14.60;99.90
11772;DHT22;12556;55.748;13.194;2023-08-30T02:25:25;14.60;99.90
11772;DHT22;12556;55.748;13.194;2023-08-30T02:27:52;14.60;99.90
11772;DHT22;12556;55.748;13.194;2023-08-30T02:30:19;14.60;99.90
11772;DHT22;12556;55.748;13.194;2023-08-30T02:32:46;14.50;99.90
11772;DHT22;12556;55.748;13.194;2023-08-30T02:35:14;14.50;99.90
11772;DHT22;12556;55.748;13.194;2023-08-30T02:37:41;14.60;99.90
11772;DHT22;12556;55.748;13.194;2023-08-30T02:40:09;14.50;99.90
11772;DHT22;12556;55.748;13.194;2023-08-30T02:42:36;14.50;99.90
11772;DHT22;12556;55.748;13.194;2023-08-30T02:45:04;14.50;99.90
11772;DHT22;12556;55.748;13.194;2023-08-30T02:47:31;14.50;99.90
11772;DHT22;12556;55.748;13.194;2023-08-30T02:49:58;14.50;99.90
11772;DHT22;12556;55.748;13.194;2023-08-30T02:52:26;14.50;99.90
11772;DHT22;12556;55.748;13.194;2023-08-30T02:54:53;14.50;99.90
11772;DHT22;12556;55.748;13.194;2023-08-30T02:57:19;14.50;99.90
11772;DHT22;12556;55.748;13.194;2023-08-30T02:59:46;14.50;99.90
11772;DHT22;12556;55.748;13.194;2023-08-30T03:02:13;14.50;99.90
11772;DHT22;12556;55.748;13.194;2023-08-30T03:04:40;14.50;99.90
11772;DHT22;12556;55.748;13.194;2023-08-30T03:07:07;14.50;99.90
11772;DHT22;12556;55.748;13.194;2023-08-30T03:09:35;14.50;99.90
11772;DHT22;12556;55.748;13.194;2023-08-30T03:12:04;14.40;99.90
11772;DHT22;12556;55.748;13.194;2023-08-30T03:14:31;14.50;99.90
11772;DHT22;12556;55.748;13.194;2023-08-30T03:16:58;14.40;99.90
11772;DHT22;12556;55.748;13.194;2023-08-30T03:19:25;14.50;99.90
11772;DHT22;12556;55.748;13.194;2023-08-30T03:21:52;14.40;99.90
11772;DHT22;12556;55.748;13.194;2023-08-30T03:24:19;14.40;99.90
11772;DHT22;12556;55.748;13.194;2023-08-30T03:26:47;14.40;99.90
11772;DHT22;12556;55.748;13.194;2023-08-30T03:29:14;14.50;99.90
11772;DHT22;12556;55.748;13.194;2023-08-30T03:31:40;14.40;99.90
11772;DHT22;12556;55.748;13.194;2023-08-30T03:34:09;14.40;99.90
11772;DHT22;12556;55.748;13.194;2023-08-30T03:36:37;14.40;99.90
11772;DHT22;12556;55.748;13.194;2023-08-30T03:39:04;14.40;99.90
11772;DHT22;12556;55.748;13.194;2023-08-30T03:41:32;14.30;99.90
11772;DHT22;12556;55.748;13.194;2023-08-30T03:44:00;14.30;99.90
11772;DHT22;12556;55.748;13.194;2023-08-30T03:46:27;14.30;99.90
11772;DHT22;12556;55.748;13.194;2023-08-30T03:48:54;14.30;99.90
11772;DHT22;12556;55.748;13.194;2023-08-30T03:51:22;14.30;99.90
11772;DHT22;12556;55.748;13.194;2023-08-30T03:53:48;14.20;99.90
11772;DHT22;12556;55.748;13.194;2023-08-30T03:56:15;14.20;99.90
11772;DHT22;12556;55.748;13.194;2023-08-30T03:58:42;14.20;99.90
11772;DHT22;12556;55.748;13.194;2023-08-30T04:01:10;14.20;99.90
11772;DHT22;12556;55.748;13.194;2023-08-30T04:03:37;14.10;99.90
11772;DHT22;12556;55.748;13.194;2023-08-30T04:06:04;14.10;99.90
11772;DHT22;12556;55.748;13.194;2023-08-30T04:08:31;14.00;99.90
11772;DHT22;12556;55.748;13.194;2023-08-30T04:10:58;14.00;99.90
11772;DHT22;12556;55.748;13.194;2023-08-30T04:13:25;14.00;99.90
11772;DHT22;12556;55.748;13.194;2023-08-30T04:15:52;13.90;99.90
11772;DHT22;12556;55.748;13.194;2023-08-30T04:18:20;13.90;99.90
11772;DHT22;12556;55.748;13.194;2023-08-30T04:20:47;13.80;99.90
11772;DHT22;12556;55.748;13.194;2023-08-30T04:23:14;13.70;99.90
11772;DHT22;12556;55.748;13.194;2023-08-30T04:25:41;13.70;99.90
11772;DHT22;12556;55.748;13.194;2023-08-30T04:28:08;13.70;99.90
11772;DHT22;12556;55.748;13.194;2023-08-30T04:30:36;13.60;99.90
11772;DHT22;12556;55.748;13.194;2023-08-30T04:33:04;13.60;99.90
11772;DHT22;12556;55.748;13.194;2023-08-30T04:35:32;13.60;99.90
11772;DHT22;12556;55.748;13.194;2023-08-30T04:37:59;13.60;99.90
11772;DHT22;12556;55.748;13.194;2023-08-30T04:40:26;13.50;99.90
11772;DHT22;12556;55.748;13.194;2023-08-30T04:42:53;13.40;99.90
11772;DHT22;12556;55.748;13.194;2023-08-30T04:45:21;13.40;99.90
11772;DHT22;12556;55.748;13.194;2023-08-30T04:47:48;13.30;99.90
11772;DHT22;12556;55.748;13.194;2023-08-30T04:50:15;13.30;99.90
11772;DHT22;12556;55.748;13.194;2023-08-30T04:52:43;13.30;99.90
11772;DHT22;12556;55.748;13.194;2023-08-30T04:55:10;13.30;99.90
11772;DHT22;12556;55.748;13.194;2023-08-30T04:57:37;13.30;99.90
11772;DHT22;12556;55.748;13.194;2023-08-30T05:00:06;13.30;99.90
11772;DHT22;12556;55.748;13.194;2023-08-30T05:02:33;13.20;99.90
11772;DHT22;12556;55.748;13.194;2023-08-30T05:05:00;13.30;99.90
11772;DHT22;12556;55.748;13.194;2023-08-30T05:07:27;13.30;99.90
11772;DHT22;12556;55.748;13.194;2023-08-30T05:09:55;13.30;99.90
11772;DHT22;12556;55.748;13.194;2023-08-30T05:12:22;13.30;99.90
11772;DHT22;12556;55.748;13.194;2023-08-30T05:14:49;13.30;99.90
11772;DHT22;12556;55.748;13.194;2023-08-30T05:17:16;13.30;99.90
11772;DHT22;12556;55.748;13.194;2023-08-30T05:19:43;13.30;99.90
11772;DHT22;12556;55.748;13.194;2023-08-30T05:22:10;13.40;99.90
11772;DHT22;12556;55.748;13.194;2023-08-30T05:24:37;13.40;99.90
11772;DHT22;12556;55.748;13.194;2023-08-30T05:27:05;13.40;99.90
11772;DHT22;12556;55.748;13.194;2023-08-30T05:29:32;13.40;99.90
11772;DHT22;12556;55.748;13.194;2023-08-30T05:31:59;13.40;99.90
11772;DHT22;12556;55.748;13.194;2023-08-30T05:34:26;13.40;99.90
11772;DHT22;12556;55.748;13.194;2023-08-30T05:36:54;13.50;99.90
11772;DHT22;12556;55.748;13.194;2023-08-30T05:39:21;13.50;99.90
11772;DHT22;12556;55.748;13.194;2023-08-30T05:41:47;13.60;99.90
11772;DHT22;12556;55.748;13.194;2023-08-30T05:44:16;13.70;99.90
11772;DHT22;12556;55.748;13.194;2023-08-30T05:46:43;13.90;99.90
11772;DHT22;12556;55.748;13.194;2023-08-30T05:49:10;14.00;99.90
11772;DHT22;12556;55.748;13.194;2023-08-30T05:51:37;14.10;99.90
11772;DHT22;12556;55.748;13.194;2023-08-30T05:54:04;14.20;99.90
11772;DHT22;12556;55.748;13.194;2023-08-30T05:56:31;14.30;99.90
11772;DHT22;12556;55.748;13.194;2023-08-30T05:58:58;14.40;99.90
11772;DHT22;12556;55.748;13.194;2023-08-30T06:01:26;14.50;99.90
11772;DHT22;12556;55.748;13.194;2023-08-30T06:03:53;14.60;99.90
11772;DHT22;12556;55.748;13.194;2023-08-30T06:06:20;14.70;99.90
11772;DHT22;12556;55.748;13.194;2023-08-30T06:08:47;14.80;99.90
11772;DHT22;12556;55.748;13.194;2023-08-30T06:11:14;14.90;99.90
11772;DHT22;12556;55.748;13.194;2023-08-30T06:13:41;14.90;99.90
11772;DHT22;12556;55.748;13.194;2023-08-30T06:16:08;15.00;99.90
11772;DHT22;12556;55.748;13.194;2023-08-30T06:18:36;15.10;99.90
11772;DHT22;12556;55.748;13.194;2023-08-30T06:21:03;15.10;99.90
11772;DHT22;12556;55.748;13.194;2023-08-30T06:23:30;15.20;99.90
11772;DHT22;12556;55.748;13.194;2023-08-30T06:25:57;15.20;99.90
11772;DHT22;12556;55.748;13.194;2023-08-30T06:28:25;15.20;99.90
11772;DHT22;12556;55.748;13.194;2023-08-30T06:30:52;15.20;99.90
11772;DHT22;12556;55.748;13.194;2023-08-30T06:33:19;15.20;99.90
11772;DHT22;12556;55.748;13.194;2023-08-30T06:35:49;15.20;99.90
11772;DHT22;12556;55.748;13.194;2023-08-30T06:38:16;15.20;99.90
11772;DHT22;12556;55.748;13.194;2023-08-30T06:40:44;15.20;99.90
11772;DHT22;12556;55.748;13.194;2023-08-30T06:43:11;15.40;99.90
11772;DHT22;12556;55.748;13.194;2023-08-30T06:45:38;15.40;99.90
11772;DHT22;12556;55.748;13.194;2023-08-30T06:48:06;15.50;99.90
11772;DHT22;12556;55.748;13.194;2023-08-30T06:50:33;15.60;99.90
11772;DHT22;12556;55.748;13.194;2023-08-30T06:53:01;15.80;99.90
11772;DHT22;12556;55.748;13.194;2023-08-30T06:55:28;15.90;99.90
11772;DHT22;12556;55.748;13.194;2023-08-30T06:57:55;16.10;99.90
11772;DHT22;12556;55.748;13.194;2023-08-30T07:00:22;16.30;99.90
11772;DHT22;12556;55.748;13.194;2023-08-30T07:02:49;16.50;99.90
11772;DHT22;12556;55.748;13.194;2023-08-30T07:05:16;16.80;99.90
11772;DHT22;12556;55.748;13.194;2023-08-30T07:07:43;17.10;99.90
11772;DHT22;12556;55.748;13.194;2023-08-30T07:10:11;17.30;99.90
11772;DHT22;12556;55.748;13.194;2023-08-30T07:12:38;17.50;99.90
11772;DHT22;12556;55.748;13.194;2023-08-30T07:15:06;17.70;99.90
11772;DHT22;12556;55.748;13.194;2023-08-30T07:17:33;17.90;99.90
11772;DHT22;12556;55.748;13.194;2023-08-30T07:20:00;18.10;99.90
11772;DHT22;12556;55.748;13.194;2023-08-30T07:22:26;18.40;99.90
11772;DHT22;12556;55.748;13.194;2023-08-30T07:24:53;18.60;99.90
11772;DHT22;12556;55.748;13.194;2023-08-30T07:27:21;18.70;99.90
11772;DHT22;12556;55.748;13.194;2023-08-30T07:29:48;18.90;99.90
11772;DHT22;12556;55.748;13.194;2023-08-30T07:32:15;19.20;99.90
11772;DHT22;12556;55.748;13.194;2023-08-30T07:34:42;19.40;99.90
11772;DHT22;12556;55.748;13.194;2023-08-30T07:37:17;19.40;99.90
11772;DHT22;12556;55.748;13.194;2023-08-30T07:39:44;19.60;99.90
11772;DHT22;12556;55.748;13.194;2023-08-30T07:42:11;19.60;99.90
11772;DHT22;12556;55.748;13.194;2023-08-30T07:44:39;19.50;99.90
11772;DHT22;12556;55.748;13.194;2023-08-30T07:47:06;19.60;99.90
11772;DHT22;12556;55.748;13.194;2023-08-30T07:49:33;19.60;99.90
11772;DHT22;12556;55.748;13.194;2023-08-30T07:52:00;19.80;99.90
11772;DHT22;12556;55.748;13.194;2023-08-30T07:54:28;19.90;99.90
11772;DHT22;12556;55.748;13.194;2023-08-30T07:56:55;20.10;99.90
11772;DHT22;12556;55.748;13.194;2023-08-30T07:59:22;20.30;99.90
11772;DHT22;12556;55.748;13.194;2023-08-30T08:01:50;20.50;99.90
11772;DHT22;12556;55.748;13.194;2023-08-30T08:04:17;20.70;99.90
11772;DHT22;12556;55.748;13.194;2023-08-30T08:06:44;20.90;99.90
11772;DHT22;12556;55.748;13.194;2023-08-30T08:09:11;21.20;99.90
11772;DHT22;12556;55.748;13.194;2023-08-30T08:11:38;21.20;99.90
11772;DHT22;12556;55.748;13.194;2023-08-30T08:14:09;21.40;99.90
11772;DHT22;12556;55.748;13.194;2023-08-30T08:16:36;21.40;99.90
11772;DHT22;12556;55.748;13.194;2023-08-30T08:19:05;21.40;99.90
11772;DHT22;12556;55.748;13.194;2023-08-30T08:21:32;21.50;99.90
11772;DHT22;12556;55.748;13.194;2023-08-30T08:23:59;21.70;99.90
11772;DHT22;12556;55.748;13.194;2023-08-30T08:26:26;21.80;99.90
11772;DHT22;12556;55.748;13.194;2023-08-30T08:28:54;21.90;99.90
11772;DHT22;12556;55.748;13.194;2023-08-30T08:31:21;22.10;99.90
11772;DHT22;12556;55.748;13.194;2023-08-30T08:33:51;22.30;99.90
11772;DHT22;12556;55.748;13.194;2023-08-30T08:36:19;22.70;99.90
11772;DHT22;12556;55.748;13.194;2023-08-30T08:38:46;22.60;99.90
11772;DHT22;12556;55.748;13.194;2023-08-30T08:41:14;22.50;99.90
11772;DHT22;12556;55.748;13.194;2023-08-30T08:43:42;22.50;99.90
11772;DHT22;12556;55.748;13.194;2023-08-30T08:46:11;22.50;99.90
11772;DHT22;12556;55.748;13.194;2023-08-30T08:48:41;22.50;99.90
11772;DHT22;12556;55.748;13.194;2023-08-30T08:51:10;22.20;99.90
11772;DHT22;12556;55.748;13.194;2023-08-30T08:53:38;22.10;99.90
11772;DHT22;12556;55.748;13.194;2023-08-30T08:56:06;22.10;99.90
11772;DHT22;12556;55.748;13.194;2023-08-30T08:58:35;22.30;99.90
11772;DHT22;12556;55.748;13.194;2023-08-30T09:01:04;22.50;99.90
11772;DHT22;12556;55.748;13.194;2023-08-30T09:03:33;22.60;99.90
11772;DHT22;12556;55.748;13.194;2023-08-30T09:06:02;22.70;99.90
11772;DHT22;12556;55.748;13.194;2023-08-30T09:08:29;22.80;99.90
11772;DHT22;12556;55.748;13.194;2023-08-30T09:10:57;22.90;99.90
11772;DHT22;12556;55.748;13.194;2023-08-30T09:13:24;23.00;99.90
11772;DHT22;12556;55.748;13.194;2023-08-30T09:15:51;23.10;99.90
11772;DHT22;12556;55.748;13.194;2023-08-30T09:18:19;23.10;99.90
11772;DHT22;12556;55.748;13.194;2023-08-30T09:20:45;23.20;99.90
11772;DHT22;12556;55.748;13.194;2023-08-30T09:23:19;22.90;99.90
11772;DHT22;12556;55.748;13.194;2023-08-30T09:25:47;23.00;99.90
11772;DHT22;12556;55.748;13.194;2023-08-30T09:28:21;22.80;99.90
11772;DHT22;12556;55.748;13.194;2023-08-30T09:30:49;22.90;99.90
11772;DHT22;12556;55.748;13.194;2023-08-30T09:33:20;22.90;99.90
11772;DHT22;12556;55.748;13.194;2023-08-30T09:35:47;22.80;99.90
11772;DHT22;12556;55.748;13.194;2023-08-30T09:38:17;22.90;99.90
11772;DHT22;12556;55.748;13.194;2023-08-30T09:40:44;22.80;99.90
11772;DHT22;12556;55.748;13.194;2023-08-30T09:43:12;23.00;99.90
11772;DHT22;12556;55.748;13.194;2023-08-30T09:45:41;23.20;99.90
11772;DHT22;12556;55.748;13.194;2023-08-30T09:48:08;23.30;99.90
11772;DHT22;12556;55.748;13.194;2023-08-30T09:50:36;23.50;99.90
11772;DHT22;12556;55.748;13.194;2023-08-30T09:53:06;23.80;99.90
11772;DHT22;12556;55.748;13.194;2023-08-30T09:55:33;24.00;99.90
11772;DHT22;12556;55.748;13.194;2023-08-30T09:58:02;24.00;99.90
11772;DHT22;12556;55.748;13.194;2023-08-30T10:00:29;24.20;99.90
11772;DHT22;12556;55.748;13.194;2023-08-30T10:02:59;24.30;99.70
11772;DHT22;12556;55.748;13.194;2023-08-30T10:05:27;24.40;99.20
11772;DHT22;12556;55.748;13.194;2023-08-30T10:07:54;24.50;99.40
11772;DHT22;12556;55.748;13.194;2023-08-30T10:10:22;24.60;99.40
11772;DHT22;12556;55.748;13.194;2023-08-30T10:12:50;24.70;98.80
11772;DHT22;12556;55.748;13.194;2023-08-30T10:15:20;24.60;98.90
11772;DHT22;12556;55.748;13.194;2023-08-30T10:17:49;24.60;98.80
11772;DHT22;12556;55.748;13.194;2023-08-30T10:20:20;24.70;98.70
11772;DHT22;12556;55.748;13.194;2023-08-30T10:22:48;24.60;98.60
11772;DHT22;12556;55.748;13.194;2023-08-30T10:25:20;24.60;98.40
11772;DHT22;12556;55.748;13.194;2023-08-30T10:27:49;24.60;98.30
11772;DHT22;12556;55.748;13.194;2023-08-30T10:30:19;24.60;98.20
11772;DHT22;12556;55.748;13.194;2023-08-30T10:32:47;24.50;98.50
11772;DHT22;12556;55.748;13.194;2023-08-30T10:35:14;24.60;98.70
11772;DHT22;12556;55.748;13.194;2023-08-30T10:37:53;24.90;98.70
11772;DHT22;12556;55.748;13.194;2023-08-30T10:40:21;24.80;98.40
11772;DHT22;12556;55.748;13.194;2023-08-30T10:42:58;24.40;98.80
11772;DHT22;12556;55.748;13.194;2023-08-30T10:45:26;24.60;98.70
11772;DHT22;12556;55.748;13.194;2023-08-30T10:47:55;24.70;98.50
11772;DHT22;12556;55.748;13.194;2023-08-30T10:50:28;24.80;98.20
11772;DHT22;12556;55.748;13.194;2023-08-30T10:52:58;24.90;97.90
11772;DHT22;12556;55.748;13.194;2023-08-30T10:55:25;24.60;97.90
11772;DHT22;12556;55.748;13.194;2023-08-30T10:57:59;24.50;98.40
11772;DHT22;12556;55.748;13.194;2023-08-30T11:00:28;24.70;97.90
11772;DHT22;12556;55.748;13.194;2023-08-30T11:02:55;25.00;97.60
11772;DHT22;12556;55.748;13.194;2023-08-30T11:05:23;25.20;97.50
11772;DHT22;12556;55.748;13.194;2023-08-30T11:07:50;25.30;97.90
11772;DHT22;12556;55.748;13.194;2023-08-30T11:10:20;25.40;97.80
11772;DHT22;12556;55.748;13.194;2023-08-30T11:12:49;25.40;97.80
11772;DHT22;12556;55.748;13.194;2023-08-30T11:15:17;25.20;98.20
11772;DHT22;12556;55.748;13.194;2023-08-30T11:17:44;25.30;97.80
11772;DHT22;12556;55.748;13.194;2023-08-30T11:20:13;25.20;97.80
11772;DHT22;12556;55.748;13.194;2023-08-30T11:22:42;25.20;97.70
11772;DHT22;12556;55.748;13.194;2023-08-30T11:25:10;25.10;97.50
11772;DHT22;12556;55.748;13.194;2023-08-30T11:27:39;25.00;97.70
11772;DHT22;12556;55.748;13.194;2023-08-30T11:30:07;25.00;97.90
11772;DHT22;12556;55.748;13.194;2023-08-30T11:32:35;25.10;97.80
11772;DHT22;12556;55.748;13.194;2023-08-30T11:35:04;25.20;97.50
11772;DHT22;12556;55.748;13.194;2023-08-30T11:37:32;25.20;97.40
11772;DHT22;12556;55.748;13.194;2023-08-30T11:40:00;25.30;97.40
11772;DHT22;12556;55.748;13.194;2023-08-30T11:42:27;25.30;97.50
11772;DHT22;12556;55.748;13.194;2023-08-30T11:44:57;25.30;97.80
11772;DHT22;12556;55.748;13.194;2023-08-30T11:47:25;25.30;97.70
11772;DHT22;12556;55.748;13.194;2023-08-30T11:49:55;25.50;97.50
11772;DHT22;12556;55.748;13.194;2023-08-30T11:52:23;25.60;97.20
11772;DHT22;12556;55.748;13.194;2023-08-30T11:54:50;25.60;97.00
11772;DHT22;12556;55.748;13.194;2023-08-30T11:57:17;25.40;96.80
11772;DHT22;12556;55.748;13.194;2023-08-30T11:59:44;25.20;97.20
11772;DHT22;12556;55.748;13.194;2023-08-30T12:02:15;25.20;97.40
11772;DHT22;12556;55.748;13.194;2023-08-30T12:04:43;25.10;97.20
11772;DHT22;12556;55.748;13.194;2023-08-30T12:07:21;25.10;97.10
11772;DHT22;12556;55.748;13.194;2023-08-30T12:09:48;25.20;96.90
11772;DHT22;12556;55.748;13.194;2023-08-30T12:12:15;25.30;97.10
11772;DHT22;12556;55.748;13.194;2023-08-30T12:14:42;25.40;96.60
11772;DHT22;12556;55.748;13.194;2023-08-30T12:17:09;25.60;96.90
11772;DHT22;12556;55.748;13.194;2023-08-30T12:19:39;25.60;96.40
11772;DHT22;12556;55.748;13.194;2023-08-30T12:22:07;25.50;96.50
11772;DHT22;12556;55.748;13.194;2023-08-30T12:24:44;25.60;96.00
11772;DHT22;12556;55.748;13.194;2023-08-30T12:27:11;25.70;96.00
11772;DHT22;12556;55.748;13.194;2023-08-30T12:29:37;25.80;96.00
11772;DHT22;12556;55.748;13.194;2023-08-30T12:32:06;26.00;95.60
11772;DHT22;12556;55.748;13.194;2023-08-30T12:34:33;26.10;94.90
11772;DHT22;12556;55.748;13.194;2023-08-30T12:37:01;26.10;95.30
11772;DHT22;12556;55.748;13.194;2023-08-30T12:39:28;26.20;95.10
11772;DHT22;12556;55.748;13.194;2023-08-30T12:41:55;26.40;95.20
11772;DHT22;12556;55.748;13.194;2023-08-30T12:44:22;26.40;94.70
11772;DHT22;12556;55.748;13.194;2023-08-30T12:46:49;26.50;94.20
11772;DHT22;12556;55.748;13.194;2023-08-30T12:49:16;26.40;94.20
11772;DHT22;12556;55.748;13.194;2023-08-30T12:51:42;26.20;94.60
11772;DHT22;12556;55.748;13.194;2023-08-30T12:54:11;26.10;94.60
11772;DHT22;12556;55.748;13.194;2023-08-30T12:56:38;25.80;94.90
11772;DHT22;12556;55.748;13.194;2023-08-30T12:59:05;25.80;94.90
11772;DHT22;12556;55.748;13.194;2023-08-30T13:01:32;25.90;94.50
11772;DHT22;12556;55.748;13.194;2023-08-30T13:03:58;26.00;94.50
11772;DHT22;12556;55.748;13.194;2023-08-30T13:06:25;25.90;94.40
11772;DHT22;12556;55.748;13.194;2023-08-30T13:08:52;25.80;94.50
11772;DHT22;12556;55.748;13.194;2023-08-30T13:11:21;25.50;95.10
11772;DHT22;12556;55.748;13.194;2023-08-30T13:13:47;25.40;94.90
11772;DHT22;12556;55.748;13.194;2023-08-30T13:16:14;25.40;95.10
11772;DHT22;12556;55.748;13.194;2023-08-30T13:18:41;25.40;94.80
11772;DHT22;12556;55.748;13.194;2023-08-30T13:21:08;25.40;94.70
11772;DHT22;12556;55.748;13.194;2023-08-30T13:23:35;25.60;94.50
11772;DHT22;12556;55.748;13.194;2023-08-30T13:26:02;25.70;94.40
11772;DHT22;12556;55.748;13.194;2023-08-30T13:28:30;25.70;94.10
11772;DHT22;12556;55.748;13.194;2023-08-30T13:30:57;25.60;94.50
11772;DHT22;12556;55.748;13.194;2023-08-30T13:33:24;25.70;94.40
11772;DHT22;12556;55.748;13.194;2023-08-30T13:35:50;25.80;94.20
11772;DHT22;12556;55.748;13.194;2023-08-30T13:38:18;25.80;93.80
11772;DHT22;12556;55.748;13.194;2023-08-30T13:40:45;25.80;93.60
11772;DHT22;12556;55.748;13.194;2023-08-30T13:43:11;25.70;93.30
11772;DHT22;12556;55.748;13.194;2023-08-30T13:45:40;25.80;93.60
11772;DHT22;12556;55.748;13.194;2023-08-30T13:48:07;26.00;93.70
11772;DHT22;12556;55.748;13.194;2023-08-30T13:50:41;26.10;93.20
11772;DHT22;12556;55.748;13.194;2023-08-30T13:53:09;26.20;93.10
11772;DHT22;12556;55.748;13.194;2023-08-30T13:55:36;26.10;92.40
11772;DHT22;12556;55.748;13.194;2023-08-30T13:58:03;26.00;92.70
11772;DHT22;12556;55.748;13.194;2023-08-30T14:00:30;25.90;93.10
11772;DHT22;12556;55.748;13.194;2023-08-30T14:02:58;25.80;93.70
11772;DHT22;12556;55.748;13.194;2023-08-30T14:05:25;25.80;94.00
11772;DHT22;12556;55.748;13.194;2023-08-30T14:07:52;25.80;93.80
11772;DHT22;12556;55.748;13.194;2023-08-30T14:10:18;25.70;94.10
11772;DHT22;12556;55.748;13.194;2023-08-30T14:12:45;25.80;93.90
11772;DHT22;12556;55.748;13.194;2023-08-30T14:15:12;25.70;94.30
11772;DHT22;12556;55.748;13.194;2023-08-30T14:17:39;25.50;94.10
11772;DHT22;12556;55.748;13.194;2023-08-30T14:20:10;25.40;94.30
11772;DHT22;12556;55.748;13.194;2023-08-30T14:22:37;25.40;94.20
11772;DHT22;12556;55.748;13.194;2023-08-30T14:25:04;25.40;94.60
11772;DHT22;12556;55.748;13.194;2023-08-30T14:27:31;25.50;94.30
11772;DHT22;12556;55.748;13.194;2023-08-30T14:29:58;25.60;94.10
11772;DHT22;12556;55.748;13.194;2023-08-30T14:32:25;25.40;93.70
11772;DHT22;12556;55.748;13.194;2023-08-30T14:34:52;25.20;94.00
11772;DHT22;12556;55.748;13.194;2023-08-30T14:37:21;25.10;93.70
11772;DHT22;12556;55.748;13.194;2023-08-30T14:39:48;25.10;94.00
11772;DHT22;12556;55.748;13.194;2023-08-30T14:42:14;25.10;93.80
11772;DHT22;12556;55.748;13.194;2023-08-30T14:44:41;25.10;93.90
11772;DHT22;12556;55.748;13.194;2023-08-30T14:47:08;25.00;93.90
11772;DHT22;12556;55.748;13.194;2023-08-30T14:49:35;25.00;94.00
11772;DHT22;12556;55.748;13.194;2023-08-30T14:52:02;25.00;94.10
11772;DHT22;12556;55.748;13.194;2023-08-30T14:54:30;25.20;93.90
11772;DHT22;12556;55.748;13.194;2023-08-30T14:56:57;25.30;93.90
11772;DHT22;12556;55.748;13.194;2023-08-30T14:59:24;25.10;93.90
11772;DHT22;12556;55.748;13.194;2023-08-30T15:01:51;24.90;94.20
11772;DHT22;12556;55.748;13.194;2023-08-30T15:04:18;24.70;94.30
11772;DHT22;12556;55.748;13.194;2023-08-30T15:06:45;24.60;94.40
11772;DHT22;12556;55.748;13.194;2023-08-30T15:09:12;24.50;94.70
11772;DHT22;12556;55.748;13.194;2023-08-30T15:11:43;24.40;95.00
11772;DHT22;12556;55.748;13.194;2023-08-30T15:14:10;24.20;95.00
11772;DHT22;12556;55.748;13.194;2023-08-30T15:16:37;24.10;95.10
11772;DHT22;12556;55.748;13.194;2023-08-30T15:19:04;24.10;95.00